Terminal Aerodrome Forecast
Issued by NWS Brownsville, TX

Home | Current Version | Previous Version | Text Only | Print | Product List | Glossary On
Versions: 1 2 3 4 5 6 7 8 9 10 11 12 13 14 15
191
FTUS44 KBRO 222320
TAFMFE
TAF
KMFE 222320Z 2300/2324 13013G20KT P6SM BKN250
     FM230300 12005KT P6SM SCT250
     FM231800 11010KT P6SM VCSH SCT025 BKN050 PROB30 2321/2324 4SM
      TSRA BKN025CB=

USA.gov is the U.S. government's official web portal to all federal, state and local government web resources and services.